createdAt,value
2022-09-21T00:00:12.223Z,98254.22
2022-09-21T00:05:15.765Z,98254.66
2022-09-21T00:10:20.255Z,98252.59
2022-09-21T00:15:25.255Z,98248.78
2022-09-21T00:20:29.208Z,98245.97
2022-09-21T00:25:32.616Z,98259.38
2022-09-21T00:30:39.192Z,98255.06
2022-09-21T00:35:42.637Z,98259.63
2022-09-21T00:40:46.099Z,98261.66
2022-09-21T00:45:56.224Z,98267.00
2022-09-21T00:51:04.271Z,98268.84
2022-09-21T00:56:10.553Z,98265.25
2022-09-21T01:01:16.559Z,98269.97
2022-09-21T01:06:22.430Z,98265.94
2022-09-21T01:11:40.268Z,98259.13
2022-09-21T01:16:54.106Z,98262.59
2022-09-21T01:22:07.796Z,98267.03
2022-09-21T01:27:36.673Z,98265.56
2022-09-21T01:32:46.089Z,98270.19
2022-09-21T01:37:55.534Z,98273.28
2022-09-21T01:43:01.971Z,98281.66
2022-09-21T01:48:07.441Z,98279.97
2022-09-21T01:53:19.411Z,98291.38
2022-09-21T01:58:29.980Z,98284.66
2022-09-21T02:03:40.301Z,98282.22
2022-09-21T02:08:44.007Z,98284.81
2022-09-21T02:13:52.292Z,98283.13
2022-09-21T02:19:11.278Z,98283.94
2022-09-21T02:24:23.067Z,98285.19
2022-09-21T02:29:33.485Z,98282.69
2022-09-21T02:34:46.644Z,98289.78
2022-09-21T02:40:00.471Z,98276.78
2022-09-21T02:45:08.981Z,98273.41
2022-09-21T02:50:21.362Z,98284.91
2022-09-21T02:55:26.540Z,98289.97
2022-09-21T03:00:31.144Z,98292.91
2022-09-21T03:05:36.199Z,98286.94
2022-09-21T03:10:40.905Z,98296.44
2022-09-21T03:15:45.618Z,98301.06
2022-09-21T03:20:50.586Z,98300.25
2022-09-21T03:25:54.723Z,98298.59
2022-09-21T03:30:58.566Z,98310.59
2022-09-21T03:36:04.296Z,98314.44
2022-09-21T03:41:08.240Z,98303.19
2022-09-21T03:46:11.944Z,98304.94
2022-09-21T03:51:16.796Z,98306.94
2022-09-21T03:56:20.347Z,98312.13
2022-09-21T04:01:24.310Z,98320.06
2022-09-21T04:06:30.174Z,98326.16
2022-09-21T04:11:34.758Z,98326.25
2022-09-21T04:16:38.907Z,98324.56
2022-09-21T04:21:44.748Z,98324.44
2022-09-21T04:26:49.411Z,98324.13
2022-09-21T04:31:52.936Z,98318.72
2022-09-21T04:36:58.608Z,98319.69
2022-09-21T04:42:03.475Z,98328.38
2022-09-21T04:47:07.263Z,98318.09
2022-09-21T04:52:16.998Z,98319.03
2022-09-21T04:57:22.839Z,98330.41
2022-09-21T05:02:26.621Z,98327.00
2022-09-21T05:07:31.900Z,98329.47
2022-09-21T05:12:40.700Z,98333.59
2022-09-21T05:17:44.676Z,98336.06
2022-09-21T05:22:49.769Z,98337.19
2022-09-21T05:27:53.526Z,98337.66
2022-09-21T05:33:03.879Z,98353.97
2022-09-21T05:38:15.101Z,98354.75
2022-09-21T05:43:19.405Z,98353.72
2022-09-21T05:48:27.496Z,98357.53
2022-09-21T05:54:05.155Z,98358.09
2022-09-21T05:59:26.372Z,98362.03
2022-09-21T06:04:30.733Z,98362.66
2022-09-21T06:09:37.973Z,98367.66
2022-09-21T06:14:44.896Z,98372.59
2022-09-21T06:19:48.450Z,98366.13
2022-09-21T06:24:53.745Z,98361.22
2022-09-21T06:29:57.427Z,98364.34
2022-09-21T06:35:01.098Z,98362.41
2022-09-21T06:40:07.501Z,98361.84
2022-09-21T06:45:11.519Z,98358.75
2022-09-21T06:50:15.208Z,98366.88
2022-09-21T06:55:20.186Z,98366.50
2022-09-21T07:00:23.678Z,98364.81
2022-09-21T07:05:28.012Z,98368.38
2022-09-21T07:10:32.816Z,98373.59
2022-09-21T07:15:36.619Z,98371.53
2022-09-21T07:20:41.084Z,98379.59
2022-09-21T07:25:48.952Z,98373.19
2022-09-21T07:30:52.334Z,98367.94
2022-09-21T07:35:57.405Z,98370.06
2022-09-21T07:41:04.203Z,98370.72
2022-09-21T07:46:08.158Z,98366.47
2022-09-21T07:51:13.295Z,98363.97
2022-09-21T07:56:20.082Z,98360.28
2022-09-21T08:01:24.362Z,98359.72
2022-09-21T08:06:30.444Z,98363.22
2022-09-21T08:11:36.122Z,98363.28
2022-09-21T08:16:40.150Z,98360.81
2022-09-21T08:21:44.065Z,98359.97
2022-09-21T08:26:51.641Z,98369.88
2022-09-21T08:31:55.200Z,98365.81
2022-09-21T08:36:58.957Z,98373.34
2022-09-21T08:42:14.623Z,98371.66
2022-09-21T08:47:24.046Z,98374.66
2022-09-21T08:52:27.799Z,98379.66
2022-09-21T08:57:35.233Z,98380.63
2022-09-21T09:03:13.869Z,98375.97
2022-09-21T09:08:38.409Z,98386.22
2022-09-21T09:14:02.975Z,98387.78
2022-09-21T09:19:18.811Z,98383.13
2022-09-21T09:24:32.910Z,98378.53
2022-09-21T09:29:45.267Z,98372.19
2022-09-21T09:34:56.371Z,98367.09
2022-09-21T09:40:02.092Z,98379.84
2022-09-21T09:45:34.363Z,98377.41
2022-09-21T09:50:40.606Z,98378.75
2022-09-21T09:55:47.942Z,98371.47
2022-09-21T10:00:57.684Z,98380.34
2022-09-21T10:06:02.543Z,98375.25
2022-09-21T10:11:06.903Z,98376.09
2022-09-21T10:16:16.604Z,98377.31
2022-09-21T10:21:23.202Z,98378.16
2022-09-21T10:26:32.707Z,98377.06
2022-09-21T10:31:37.649Z,98376.59
2022-09-21T10:36:41.735Z,98374.91
2022-09-21T10:41:50.278Z,98370.66
2022-09-21T10:52:04.462Z,98359.13
2022-09-21T10:57:11.283Z,98365.22
2022-09-21T11:02:36.531Z,98364.41
2022-09-21T11:07:46.029Z,98357.31
2022-09-21T11:13:12.715Z,98354.19
2022-09-21T11:18:23.338Z,98345.81
2022-09-21T11:23:40.412Z,98347.59
2022-09-21T11:28:50.964Z,98339.56
2022-09-21T11:34:13.028Z,98342.03
2022-09-21T11:39:25.683Z,98325.03
2022-09-21T11:44:55.578Z,98344.31
2022-09-21T11:50:33.651Z,98337.00
2022-09-21T11:56:07.872Z,98328.00
2022-09-21T12:01:26.078Z,98325.88
2022-09-21T12:06:42.247Z,98314.75
2022-09-21T12:11:55.501Z,98314.50
2022-09-21T12:17:06.045Z,98312.53
2022-09-21T12:22:17.676Z,98311.66
2022-09-21T12:27:28.815Z,98304.00
2022-09-21T12:32:47.481Z,98311.16
2022-09-21T12:37:57.703Z,98307.88
2022-09-21T12:43:09.611Z,98305.97
2022-09-21T12:48:31.038Z,98297.94
2022-09-21T12:53:41.343Z,98296.84
2022-09-21T12:58:55.562Z,98300.94
2022-09-21T13:04:29.938Z,98292.41
2022-09-21T13:09:40.146Z,98289.28
2022-09-21T13:14:48.226Z,98283.00
2022-09-21T13:20:02.363Z,98283.97
2022-09-21T13:25:19.714Z,98284.56
2022-09-21T13:30:33.287Z,98280.22
2022-09-21T13:36:02.384Z,98283.56
2022-09-21T13:41:51.921Z,98277.28
2022-09-21T13:46:56.070Z,98267.22
2022-09-21T13:52:03.312Z,98263.09
2022-09-21T13:57:19.420Z,98255.97
2022-09-21T14:02:32.619Z,98251.88
2022-09-21T14:07:36.856Z,98251.38
2022-09-21T14:12:45.176Z,98245.88
2022-09-21T14:18:18.155Z,98244.59
2022-09-21T14:23:31.048Z,98249.59
2022-09-21T14:28:40.366Z,98251.91
2022-09-21T14:33:48.311Z,98243.44
2022-09-21T14:38:58.463Z,98241.47
2022-09-21T14:44:04.548Z,98237.03
2022-09-21T14:49:28.047Z,98231.97
2022-09-21T14:54:43.737Z,98230.91
2022-09-21T15:00:02.898Z,98231.22
2022-09-21T15:05:17.062Z,98231.00
2022-09-21T15:10:43.573Z,98224.03
2022-09-21T15:16:01.354Z,98218.78
2022-09-21T15:21:05.760Z,98217.19
2022-09-21T15:26:11.546Z,98217.38
2022-09-21T15:31:17.236Z,98219.34
2022-09-21T15:36:27.162Z,98216.50
2022-09-21T15:41:43.444Z,98215.25
2022-09-21T15:47:01.275Z,98220.97
2022-09-21T15:52:12.988Z,98216.63
2022-09-21T15:57:39.053Z,98211.31
2022-09-21T16:02:56.237Z,98226.09
2022-09-21T16:08:12.309Z,98222.84
2022-09-21T16:13:38.537Z,98229.47
2022-09-21T16:18:49.253Z,98217.66
2022-09-21T16:23:56.169Z,98230.22
2022-09-21T16:29:19.925Z,98220.38
2022-09-21T16:34:37.029Z,98233.69
2022-09-21T16:39:42.238Z,98233.47
2022-09-21T16:44:46.016Z,98238.56
2022-09-21T16:49:51.741Z,98235.00
2022-09-21T16:54:56.564Z,98237.28
2022-09-21T17:00:00.229Z,98234.56
2022-09-21T17:05:05.543Z,98228.81
2022-09-21T17:10:14.083Z,98239.16
2022-09-21T17:15:17.656Z,98227.75
2022-09-21T17:20:32.380Z,98243.72
2022-09-21T17:25:37.189Z,98247.22
2022-09-21T17:30:43.204Z,98238.09
2022-09-21T17:35:50.867Z,98249.25
2022-09-21T17:40:56.759Z,98255.00
2022-09-21T17:46:08.400Z,98257.88
2022-09-21T17:51:34.301Z,98254.34
2022-09-21T17:56:48.168Z,98254.16
2022-09-21T18:01:52.762Z,98255.22
2022-09-21T18:07:00.616Z,98260.84
2022-09-21T18:12:37.430Z,98256.34
2022-09-21T18:17:58.826Z,98265.41
2022-09-21T18:23:18.052Z,98274.69
2022-09-21T18:28:40.294Z,98272.31
2022-09-21T18:33:52.428Z,98273.88
2022-09-21T18:39:10.722Z,98283.44
2022-09-21T18:44:21.353Z,98287.44
2022-09-21T18:49:56.365Z,98287.09
2022-09-21T18:55:02.203Z,98292.97
2022-09-21T19:00:08.413Z,98292.38
2022-09-21T19:05:13.764Z,98297.81
2022-09-21T19:10:26.812Z,98304.75
2022-09-21T19:15:59.745Z,98298.47
2022-09-21T19:21:15.098Z,98310.56
2022-09-21T19:26:28.478Z,98309.19
2022-09-21T19:31:33.106Z,98317.78
2022-09-21T19:36:36.690Z,98308.97
2022-09-21T19:41:54.550Z,98309.44
2022-09-21T19:47:06.675Z,98307.22
2022-09-21T19:52:14.765Z,98305.53
2022-09-21T19:57:39.530Z,98310.41
2022-09-21T20:02:54.095Z,98307.81
2022-09-21T20:08:04.988Z,98312.88
2022-09-21T20:13:21.947Z,98312.88
2022-09-21T20:18:30.677Z,98305.00
2022-09-21T20:23:36.162Z,98310.13
2022-09-21T20:28:41.670Z,98318.22
2022-09-21T20:33:45.178Z,98314.13
2022-09-21T20:38:48.855Z,98313.63
2022-09-21T20:43:55.392Z,98318.13
2022-09-21T20:49:04.611Z,98311.38
2022-09-21T20:54:08.517Z,98320.34
2022-09-21T20:59:13.471Z,98314.75
2022-09-21T21:04:16.942Z,98314.22
2022-09-21T21:09:20.853Z,98313.75
2022-09-21T21:14:27.970Z,98313.91
2022-09-21T21:19:32.840Z,98311.69
2022-09-21T21:24:42.097Z,98307.50
2022-09-21T21:29:50.296Z,98301.03
2022-09-21T21:34:54.705Z,98303.88
2022-09-21T21:39:58.518Z,98297.28
2022-09-21T21:45:03.301Z,98301.69
2022-09-21T21:50:07.632Z,98300.59
2022-09-21T21:55:11.181Z,98296.19
2022-09-21T22:00:17.554Z,98304.56
2022-09-21T22:05:21.099Z,98296.84
2022-09-21T22:10:25.363Z,98295.16
2022-09-21T22:15:31.792Z,98293.50
2022-09-21T22:20:35.330Z,98287.81
2022-09-21T22:25:39.373Z,98289.91
2022-09-21T22:30:50.033Z,98287.16
2022-09-21T22:35:53.489Z,98291.41
2022-09-21T22:40:56.970Z,98291.91
2022-09-21T22:46:02.595Z,98290.53
2022-09-21T22:51:06.654Z,98282.91
2022-09-21T22:56:11.802Z,98279.72
2022-09-21T23:01:19.846Z,98286.88
2022-09-21T23:06:26.484Z,98291.34
2022-09-21T23:11:33.143Z,98292.75
2022-09-21T23:16:38.156Z,98288.56
2022-09-21T23:21:42.035Z,98281.63
2022-09-21T23:26:45.699Z,98286.28
2022-09-21T23:31:50.623Z,98282.09
2022-09-21T23:36:54.479Z,98285.59
2022-09-21T23:41:57.907Z,98280.69
2022-09-21T23:47:02.815Z,98287.03
2022-09-21T23:52:06.476Z,98278.66
2022-09-21T23:57:09.753Z,98280.94
